Weather reports worldwide

Advertisment
Grenoble le Versoud, France (7487): temperature & dewpoint: 06.12.2019 12:00:00 - 12.12.2019 12:00:00 (CET)Grenoble le Versoud, France (7487): wind speed & gusts: 06.12.2019 12:00:00 - 12.12.2019 12:00:00 (CET)Grenoble le Versoud, France (7487): wind direction: 06.12.2019 12:00:00 - 12.12.2019 12:00:00 (CET)Grenoble le Versoud, France (7487): reduced air pressure: 06.12.2019 12:00:00 - 12.12.2019 12:00:00 (CET)Grenoble le Versoud, France (7487): precipitation: 06.12.2019 12:00:00 - 12.12.2019 12:00:00 (CET)
Date & Time tt [°C] td [°C] ff [km/h] ff [kn] fx [km/h] fx [kn] dd ppp [hPa] rr [mm]
12.12.2019 12:00:00 6,7 2,2 4 2 8 4 SSE 1010,9 0,0
12.12.2019 11:00:00 5,1 2,3 0 0 5 3 N 1012,1 0,0
12.12.2019 10:00:00 2,8 2,2 4 2 15 8 ESE 1012,5 0,0
12.12.2019 09:00:00 2,4 2,0 5 3 11 6 E 1012,9 0,0
12.12.2019 08:00:00 1,7 1,1 5 3 9 5 WSW 1013,2 0,0
12.12.2019 07:00:00 2,4 1,7 4 2 15 8 NW 1013,2 -
12.12.2019 06:00:00 2,0 1,3 8 4 24 13 NE 1013,2 0,0
12.12.2019 05:00:00 2,7 2,3 15 8 22 12 NNE 1012,6 0,0
12.12.2019 04:00:00 2,9 2,5 5 3 13 7 SSW 1012,2 0,6
12.12.2019 03:00:00 2,9 2,6 2 1 11 6 S 1012,3 3,0
12.12.2019 02:00:00 2,7 2,4 5 3 9 5 NE 1012,3 0,2
12.12.2019 01:00:00 2,7 2,4 2 1 8 4 S 1011,7 -
12.12.2019 00:00:00 1,9 1,6 0 0 5 3 N 1012,8 0,0
11.12.2019 23:00:00 2,6 2,3 4 2 8 4 E 1013,3 0,0
11.12.2019 22:00:00 2,7 2,3 0 0 5 3 N 1013,9 0,0
11.12.2019 21:00:00 3,1 2,5 5 3 11 6 ENE 1014,7 0,2
11.12.2019 20:00:00 3,3 2,9 5 3 11 6 NE 1016,0 0,2
11.12.2019 19:00:00 3,3 2,9 4 2 8 4 N 1016,4 -
11.12.2019 18:00:00 3,5 2,8 0 0 8 4 N 1016,4 2,0
11.12.2019 17:00:00 3,3 2,6 4 2 9 5 SSW 1016,2 2,0
11.12.2019 16:00:00 3,3 2,1 0 0 5 3 N 1015,5 2,0
11.12.2019 15:00:00 3,5 1,2 0 0 5 3 N 1015,4 0,6
11.12.2019 14:00:00 3,5 1,0 2 1 9 5 SW 1015,5 0,0
11.12.2019 13:00:00 2,9 0,9 0 0 8 4 N 1015,1 -
11.12.2019 12:00:00 2,4 1,2 2 1 8 4 E 1016,1 0,0
11.12.2019 11:00:00 1,6 0,7 2 1 9 5 NE 1017,6 0,0
11.12.2019 10:00:00 0,5 -0,1 2 1 8 4 E 1018,5 -
11.12.2019 09:00:00 0,2 -0,4 4 2 8 4 S 1019,0 0,0
11.12.2019 08:00:00 -0,7 -1,4 0 0 8 4 N 1019,7 0,0
11.12.2019 07:00:00 -0,8 -1,2 0 0 5 3 N 1020,5 -
11.12.2019 06:00:00 -0,9 -1,2 4 2 9 5 ESE 1021,1 0,0
11.12.2019 05:00:00 -2,2 -3,0 5 3 9 5 N 1021,8 0,0
11.12.2019 04:00:00 -1,5 -1,8 4 2 5 3 E 1022,4 0,0
11.12.2019 03:00:00 -2,1 -2,7 0 0 5 3 N 1023,0 0,0
11.12.2019 02:00:00 -2,0 -2,7 0 0 5 3 N 1023,4 0,0
11.12.2019 01:00:00 -1,1 -1,5 5 3 8 4 SW 1024,3 -
11.12.2019 00:00:00 -1,8 -2,6 2 1 4 2 NE 1024,9 0,0
10.12.2019 23:00:00 -1,4 -2,5 0 0 4 2 N 1025,0 0,0
10.12.2019 22:00:00 -0,8 -1,9 0 0 4 2 N 1025,1 0,0
10.12.2019 21:00:00 -0,3 -1,6 0 0 5 3 N 1025,4 0,0
10.12.2019 20:00:00 0,7 -1,7 2 1 5 3 W 1025,8 0,0
10.12.2019 19:00:00 2,6 -0,7 0 0 8 4 N 1025,5 -
10.12.2019 18:00:00 3,7 -0,1 0 0 9 5 N 1024,8 0,0
10.12.2019 17:00:00 5,2 -0,6 8 4 26 14 NE 1024,7 0,0
10.12.2019 16:00:00 7,3 0,0 16 9 31 17 N 1025,4 -
10.12.2019 15:00:00 7,9 0,1 22 12 31 17 NNE 1025,7 0,0
10.12.2019 14:00:00 8,2 0,7 16 9 29 16 NE 1025,9 0,0
10.12.2019 13:00:00 7,8 0,3 18 10 29 16 NE 1026,8 -
10.12.2019 12:00:00 7,4 0,6 15 8 26 14 NNE 1027,4 0,0
10.12.2019 11:00:00 7,0 1,3 5 3 11 6 S 1027,9 0,0
10.12.2019 10:00:00 4,0 0,0 4 2 26 14 SSW 1027,7 0,0
10.12.2019 09:00:00 3,8 0,7 4 2 16 9 SE 1028,1 0,0
10.12.2019 08:00:00 4,4 2,7 4 2 9 5 S 1027,5 0,0
10.12.2019 07:00:00 4,4 2,6 2 1 8 4 NNE 1027,1 -
10.12.2019 06:00:00 4,6 2,6 5 3 11 6 S 1026,0 0,0
10.12.2019 05:00:00 4,9 3,6 5 3 9 5 S 1025,4 0,0
10.12.2019 04:00:00 5,0 3,5 4 2 8 4 SW 1024,8 0,0
10.12.2019 03:00:00 5,1 3,8 4 2 8 4 S 1024,3 0,0
10.12.2019 02:00:00 5,3 3,8 0 0 11 6 N 1023,7 0,0
10.12.2019 01:00:00 5,4 4,2 5 3 15 8 S 1022,9 -
10.12.2019 00:00:00 5,5 4,5 8 4 16 9 SSW 1022,2 0,0
09.12.2019 23:00:00 5,3 4,6 8 4 11 6 SSW 1021,5 0,0
09.12.2019 22:00:00 5,5 4,9 0 0 8 4 N 1020,5 1,0
09.12.2019 21:00:00 5,6 4,9 0 0 9 5 N 1019,7 2,0
09.12.2019 20:00:00 5,8 4,9 8 4 18 10 NNW 1018,3 1,0
09.12.2019 19:00:00 6,3 5,3 18 10 28 15 NE 1017,3 -
09.12.2019 18:00:00 6,7 5,8 15 8 24 13 NE 1016,0 1,0
09.12.2019 17:00:00 7,7 5,2 5 3 29 16 E 1015,2 0,4
09.12.2019 16:00:00 7,8 5,6 4 2 31 17 SSW 1015,0 1,0
09.12.2019 15:00:00 8,8 5,7 13 7 26 14 SSW 1014,1 0,2
09.12.2019 14:00:00 8,2 6,5 5 3 16 9 S 1014,8 0,4
09.12.2019 13:00:00 7,9 6,7 11 6 18 10 NNW 1014,8 -
09.12.2019 12:00:00 7,6 6,4 8 4 13 7 SSW 1015,1 0,6
09.12.2019 11:00:00 7,5 6,4 8 4 15 8 SSW 1014,8 0,0
09.12.2019 10:00:00 6,7 6,0 4 2 13 7 WNW 1015,5 0,0
09.12.2019 09:00:00 6,3 5,3 5 3 16 9 SSE 1015,9 0,0
09.12.2019 08:00:00 5,6 4,9 4 2 18 10 WNW 1015,9 1,0
09.12.2019 07:00:00 5,5 4,8 2 1 11 6 NNW 1015,4 0,4
09.12.2019 06:00:00 5,1 4,4 2 1 11 6 SE 1014,8 0,0
09.12.2019 05:00:00 5,5 4,5 8 4 18 10 E 1015,6 0,0
09.12.2019 04:00:00 5,7 4,3 5 3 21 11 SW 1016,2 -
09.12.2019 03:00:00 4,3 3,9 4 2 9 5 SW 1016,8 0,0
09.12.2019 02:00:00 5,1 4,7 4 2 9 5 ESE 1016,8 0,0
09.12.2019 01:00:00 4,6 3,7 8 4 11 6 SSW 1017,1 -
09.12.2019 00:00:00 6,2 5,0 4 2 13 7 ESE 1017,7 0,2
08.12.2019 23:00:00 6,7 5,0 5 3 18 10 E 1017,8 0,0
08.12.2019 22:00:00 6,6 4,6 9 5 18 10 N 1017,8 0,0
08.12.2019 21:00:00 6,0 4,0 16 9 26 14 NW 1016,9 0,0
08.12.2019 20:00:00 4,3 3,4 5 3 11 6 NW 1017,8 0,0
08.12.2019 19:00:00 4,0 1,9 4 2 8 4 E 1018,0 -
08.12.2019 18:00:00 5,7 3,4 5 3 5 3 SSE 1017,6 0,0
08.12.2019 17:00:00 7,5 3,4 2 1 8 4 ESE 1017,1 0,0
08.12.2019 16:00:00 10,9 3,9 0 0 5 3 N 1016,9 0,0
08.12.2019 15:00:00 11,2 3,9 4 2 18 10 N 1017,2 0,0
08.12.2019 14:00:00 11,4 3,7 4 2 8 4 S 1018,2 0,0
08.12.2019 13:00:00 10,0 4,4 2 1 8 4 SE 1019,4 -
08.12.2019 12:00:00 7,0 4,1 5 3 9 5 NE 1021,1 0,0
08.12.2019 11:00:00 4,1 3,5 0 0 9 5 N 1022,0 0,0
08.12.2019 10:00:00 0,6 0,3 5 3 8 4 NNE 1022,3 0,0
08.12.2019 09:00:00 0,8 0,5 4 2 11 6 SSW 1022,6 0,0
08.12.2019 08:00:00 0,9 0,6 11 6 18 10 NE 1022,8 0,0
08.12.2019 07:00:00 1,0 0,7 4 2 11 6 S 1022,4 -
08.12.2019 06:00:00 1,6 1,5 4 2 9 5 NE 1022,7 0,0
08.12.2019 05:00:00 0,2 0,1 4 2 8 4 E 1023,4 0,0
08.12.2019 04:00:00 -1,0 -1,4 5 3 5 3 N 1023,3 0,0
08.12.2019 03:00:00 -0,5 -0,8 0 0 4 2 N 1023,8 0,0
08.12.2019 02:00:00 -0,4 -0,8 0 0 5 3 N 1023,8 0,0
08.12.2019 01:00:00 0,0 -0,3 2 1 4 2 NNE 1023,9 -
08.12.2019 00:00:00 0,6 0,0 0 0 5 3 N 1024,1 0,0
07.12.2019 23:00:00 0,9 0,3 0 0 4 2 N 1024,0 0,0
07.12.2019 22:00:00 2,0 1,4 0 0 5 3 N 1023,8 0,0
07.12.2019 21:00:00 2,3 1,7 0 0 5 3 N 1023,5 0,0
07.12.2019 20:00:00 2,8 1,2 0 0 4 2 N 1023,1 0,0
07.12.2019 19:00:00 3,3 1,0 0 0 4 2 N 1022,7 -
07.12.2019 18:00:00 5,0 2,2 0 0 8 4 N 1022,2 0,0
07.12.2019 17:00:00 8,0 3,1 4 2 5 3 SSE 1021,7 0,0
07.12.2019 16:00:00 11,8 2,8 4 2 5 3 SSE 1020,9 0,0
07.12.2019 15:00:00 13,3 1,6 0 0 8 4 N 1020,4 0,0
07.12.2019 14:00:00 12,5 0,6 2 1 8 4 E 1020,9 0,0
07.12.2019 13:00:00 11,9 2,9 0 0 5 3 N 1021,2 -
07.12.2019 12:00:00 9,6 2,9 5 3 9 5 SE 1022,3 0,0
07.12.2019 11:00:00 7,4 3,6 2 1 8 4 S 1023,0 0,0
07.12.2019 10:00:00 3,9 3,5 0 0 8 4 N 1023,4 0,0
07.12.2019 09:00:00 2,0 1,3 4 2 8 4 ESE 1023,3 0,0
07.12.2019 08:00:00 2,2 1,3 4 2 5 3 SSW 1022,9 0,0
07.12.2019 07:00:00 2,9 2,3 2 1 5 3 WNW 1022,5 -
07.12.2019 06:00:00 3,1 2,2 2 1 5 3 NE 1022,0 0,0
07.12.2019 05:00:00 3,2 2,5 5 3 5 3 NNE 1022,0 0,0
07.12.2019 04:00:00 3,1 2,4 0 0 4 2 N 1022,2 0,0
07.12.2019 03:00:00 2,7 2,0 2 1 4 2 SSE 1022,5 0,0
07.12.2019 02:00:00 2,5 1,9 0 0 8 4 N 1022,7 0,0
07.12.2019 01:00:00 2,1 1,7 0 0 5 3 N 1022,8 -
07.12.2019 00:00:00 1,6 1,2 0 0 4 2 N 1023,2 0,0
06.12.2019 23:00:00 1,2 0,9 0 0 5 3 N 1023,1 0,0
06.12.2019 22:00:00 1,0 0,6 2 1 5 3 S 1023,1 0,0
06.12.2019 21:00:00 1,8 1,4 5 3 8 4 ESE 1022,8 0,0
06.12.2019 20:00:00 1,3 0,4 0 0 4 2 N 1022,8 0,0
06.12.2019 19:00:00 1,5 0,3 0 0 4 2 N 1022,5 -
06.12.2019 18:00:00 3,1 1,6 2 1 5 3 NNE 1022,4 0,0
06.12.2019 17:00:00 5,3 1,8 0 0 5 3 N 1022,1 0,0
06.12.2019 16:00:00 6,4 1,9 5 3 11 6 ENE 1021,8 0,0
06.12.2019 15:00:00 6,2 2,8 4 2 8 4 NNE 1022,2 0,0
06.12.2019 14:00:00 4,7 2,6 4 2 9 5 NE 1023,2 0,0
06.12.2019 13:00:00 3,1 2,5 4 2 9 5 N 1024,2 -
06.12.2019 12:00:00 1,2 1,1 4 2 11 6 NE 1025,5 0,0

tt = temperature
td = dewpoint
ff = wind speed
fx = gusts
dd = wind direction
ppp = reduced air pressure
rr = precipitation

Next stations